Time;durP1;ratioP1;P1;durP2;ratioP2;P2;SDS_P1;SDS_P2;PMS_P1;PMS_P2;Temp;Humidity;BMP_temperature;BMP_pressure;BME280_temperature;BME280_humidity;BME280_pressure;Samples;Min_cycle;Max_cycle;Signal;HPM_P1;HPM_P2
2021/03/15 00:00:24;;;;;;;2.40;0.90;;;6.90;57.10;;;;;;6224850;28;20467;-61
2021/03/15 00:03:27;;;;;;;1.33;0.87;;;6.90;57.80;;;;;;6224049;28;20526;-61
2021/03/15 00:06:32;;;;;;;1.00;0.80;;;6.90;57.60;;;;;;6224526;28;20480;-61
2021/03/15 00:09:34;;;;;;;1.53;0.90;;;6.90;57.40;;;;;;6224334;28;20472;-62
2021/03/15 00:12:38;;;;;;;2.03;0.90;;;6.80;57.60;;;;;;6223858;28;20960;-61
2021/03/15 00:15:42;;;;;;;1.20;1.00;;;6.80;57.20;;;;;;6224262;28;20482;-60
2021/03/15 00:18:44;;;;;;;0.90;0.87;;;6.80;57.10;;;;;;6224375;28;21002;-60
2021/03/15 00:21:46;;;;;;;2.93;0.70;;;6.80;57.10;;;;;;6223992;28;20480;-59
2021/03/15 00:24:49;;;;;;;0.87;0.80;;;6.80;57.20;;;;;;6224350;28;20472;-59
2021/03/15 00:27:52;;;;;;;3.03;1.17;;;6.80;59.40;;;;;;6223758;28;20472;-63
2021/03/15 00:30:55;;;;;;;1.33;1.00;;;6.80;59.80;;;;;;6224281;28;20555;-63
2021/03/15 00:33:57;;;;;;;0.70;0.70;;;6.90;59.20;;;;;;6223811;28;20476;-62
2021/03/15 00:37:00;;;;;;;1.50;1.20;;;6.90;58.80;;;;;;6223618;28;20487;-61
2021/03/15 00:40:02;;;;;;;1.97;1.40;;;6.90;59.10;;;;;;6223684;28;20509;-61
2021/03/15 00:43:05;;;;;;;1.83;0.83;;;6.90;58.90;;;;;;6213919;28;20498;-63
2021/03/15 00:46:08;;;;;;;3.30;2.30;;;7.00;57.70;;;;;;6199648;28;20613;-59
2021/03/15 00:49:11;;;;;;;2.90;1.10;;;7.00;56.20;;;;;;6199273;28;20520;-59
2021/03/15 00:52:13;;;;;;;2.07;1.23;;;6.90;55.80;;;;;;6199239;28;20473;-60
2021/03/15 00:55:17;;;;;;;1.27;1.00;;;6.80;55.30;;;;;;6198969;28;20477;-60
2021/03/15 00:58:19;;;;;;;1.10;1.00;;;6.80;56.30;;;;;;6199092;28;20503;-60
2021/03/15 01:01:22;;;;;;;1.03;1.00;;;6.80;58.10;;;;;;6227080;28;20479;-60
2021/03/15 01:04:26;;;;;;;1.40;1.30;;;6.80;56.00;;;;;;6222510;28;20470;-59
2021/03/15 01:07:28;;;;;;;0.87;0.87;;;6.90;57.70;;;;;;6248171;28;20790;-61
2021/03/15 01:10:34;;;;;;;0.93;0.93;;;6.80;54.60;;;;;;6250156;28;20443;-61
2021/03/15 01:13:37;;;;;;;3.30;1.20;;;6.80;55.20;;;;;;6250041;28;20518;-62
2021/03/15 01:16:40;;;;;;;0.80;0.80;;;6.70;55.10;;;;;;6249912;28;20459;-61
2021/03/15 01:19:43;;;;;;;1.30;0.93;;;6.70;55.60;;;;;;6249848;28;20478;-61
2021/03/15 01:22:46;;;;;;;1.07;0.97;;;6.70;55.10;;;;;;6249490;28;20471;-62
2021/03/15 01:25:48;;;;;;;0.87;0.87;;;6.70;54.60;;;;;;6249790;28;20482;-62
2021/03/15 01:28:51;;;;;;;1.00;0.90;;;6.70;54.50;;;;;;6250156;28;20478;-62
2021/03/15 01:31:54;;;;;;;1.20;1.10;;;6.80;55.00;;;;;;6250187;28;20467;-61
2021/03/15 01:34:56;;;;;;;1.33;0.83;;;6.80;55.40;;;;;;6249716;28;20471;-62
2021/03/15 01:38:00;;;;;;;1.00;0.90;;;6.70;55.60;;;;;;6249603;28;20476;-62
2021/03/15 01:41:03;;;;;;;2.57;2.37;;;6.70;55.90;;;;;;6249756;28;20552;-62
2021/03/15 01:44:06;;;;;;;2.23;2.03;;;6.70;56.00;;;;;;6244815;28;20475;-62
2021/03/15 01:47:09;;;;;;;1.50;1.20;;;6.70;56.40;;;;;;6249128;28;20645;-61
2021/03/15 01:50:14;;;;;;;1.23;1.10;;;6.50;55.80;;;;;;6249876;28;20479;-62
2021/03/15 01:53:18;;;;;;;1.67;0.80;;;6.60;56.30;;;;;;6249804;28;20479;-62
2021/03/15 01:56:20;;;;;;;0.97;0.97;;;6.60;56.40;;;;;;6249504;28;20521;-61
2021/03/15 01:59:23;;;;;;;1.63;0.90;;;6.60;56.70;;;;;;6249455;28;20558;-62
2021/03/15 02:02:29;;;;;;;1.00;1.00;;;6.60;56.90;;;;;;6249723;28;20466;-62
2021/03/15 02:05:33;;;;;;;1.23;1.13;;;6.60;57.00;;;;;;6249540;28;20486;-62
2021/03/15 02:08:35;;;;;;;1.40;1.30;;;6.60;57.20;;;;;;6249743;28;20467;-62
2021/03/15 02:11:46;;;;;;;1.87;1.70;;;6.60;57.00;;;;;;6249342;28;20806;-63
2021/03/15 02:15:02;;;;;;;1.00;0.90;;;6.60;57.00;;;;;;6249058;28;20980;-63
2021/03/15 02:18:13;;;;;;;1.50;1.30;;;6.60;57.50;;;;;;6248291;28;20505;-62
2021/03/15 02:21:55;;;;;;;1.37;1.27;;;6.60;58.10;;;;;;6247260;28;20478;-63
2021/03/15 02:25:33;;;;;;;1.03;1.03;;;6.60;58.80;;;;;;6240711;28;20490;-63
2021/03/15 02:28:58;;;;;;;1.53;0.97;;;6.50;58.70;;;;;;6247093;28;20880;-63
2021/03/15 02:32:42;;;;;;;1.20;1.10;;;6.40;59.10;;;;;;6249099;28;20472;-63
2021/03/15 02:35:47;;;;;;;2.43;1.43;;;6.30;59.80;;;;;;6205482;28;20490;-62
2021/03/15 02:38:50;;;;;;;1.13;1.03;;;6.20;61.30;;;;;;6253890;28;20470;-63
2021/03/15 02:41:56;;;;;;;2.10;1.80;;;6.20;60.60;;;;;;6253641;28;20482;-60
2021/03/15 02:45:00;;;;;;;1.80;1.67;;;6.20;60.00;;;;;;6253334;28;20979;-61
2021/03/15 02:48:04;;;;;;;2.87;1.77;;;6.20;61.00;;;;;;6253310;28;20482;-61
2021/03/15 02:51:09;;;;;;;1.83;1.53;;;6.20;60.20;;;;;;6249061;28;20498;-61
2021/03/15 02:54:13;;;;;;;2.80;1.53;;;6.10;61.90;;;;;;6252968;28;20474;-61
2021/03/15 02:57:18;;;;;;;3.27;2.00;;;6.10;62.20;;;;;;6253003;28;20467;-61
2021/03/15 03:00:22;;;;;;;2.00;1.70;;;6.10;62.50;;;;;;6253543;28;20481;-61
2021/03/15 03:03:25;;;;;;;2.70;1.70;;;6.00;62.70;;;;;;6253134;28;20546;-61
2021/03/15 03:06:31;;;;;;;1.50;1.40;;;5.90;62.90;;;;;;6252811;28;20559;-61
2021/03/15 03:09:39;;;;;;;3.03;1.67;;;5.80;63.40;;;;;;6252958;28;20475;-62
2021/03/15 03:12:43;;;;;;;1.97;1.27;;;5.60;63.70;;;;;;6252671;28;20825;-62
2021/03/15 03:15:46;;;;;;;1.43;1.33;;;5.60;64.10;;;;;;6252945;28;20481;-61
2021/03/15 03:18:50;;;;;;;2.03;1.70;;;5.50;64.00;;;;;;6253271;28;20501;-61
2021/03/15 03:21:56;;;;;;;1.83;1.73;;;5.50;64.10;;;;;;6252587;28;20962;-61
2021/03/15 03:24:59;;;;;;;3.67;2.20;;;5.60;66.80;;;;;;6252640;28;20839;-62
2021/03/15 03:28:04;;;;;;;2.73;1.53;;;5.50;66.70;;;;;;6252359;28;20491;-61
2021/03/15 03:31:07;;;;;;;1.70;1.60;;;5.50;65.80;;;;;;6253033;28;20942;-62
2021/03/15 03:34:10;;;;;;;3.63;2.00;;;5.50;66.10;;;;;;6252267;28;20505;-61
2021/03/15 03:37:13;;;;;;;2.10;2.00;;;5.40;66.70;;;;;;6252257;28;20476;-62
2021/03/15 03:40:16;;;;;;;4.63;2.13;;;5.40;66.90;;;;;;6252536;28;20490;-61
2021/03/15 03:43:19;;;;;;;2.50;2.30;;;5.40;67.70;;;;;;6251572;28;20479;-61
2021/03/15 03:46:21;;;;;;;2.57;1.90;;;5.40;68.30;;;;;;6251745;28;20479;-62
2021/03/15 03:49:24;;;;;;;3.43;1.50;;;5.40;68.50;;;;;;6251692;28;20475;-61
2021/03/15 03:52:30;;;;;;;2.63;1.70;;;5.40;68.50;;;;;;6242864;28;20440;-61
2021/03/15 03:55:41;;;;;;;3.00;2.10;;;5.30;69.00;;;;;;6251774;28;20467;-61
2021/03/15 03:58:47;;;;;;;2.40;1.90;;;5.30;69.20;;;;;;6252114;28;20471;-61
2021/03/15 04:01:52;;;;;;;2.47;1.70;;;5.30;69.60;;;;;;6251800;28;20473;-61
2021/03/15 04:05:00;;;;;;;3.77;1.83;;;5.20;70.30;;;;;;6251169;28;20486;-61
2021/03/15 04:08:07;;;;;;;2.50;1.80;;;5.20;70.30;;;;;;6251292;28;20475;-62
2021/03/15 04:11:11;;;;;;;3.80;1.83;;;5.10;70.30;;;;;;6250523;28;20917;-62
2021/03/15 04:14:17;;;;;;;2.00;1.57;;;5.10;70.70;;;;;;6250951;28;20479;-62
2021/03/15 04:17:24;;;;;;;4.60;1.67;;;5.10;70.70;;;;;;6251378;28;20551;-61
2021/03/15 04:20:31;;;;;;;2.00;1.77;;;5.10;70.70;;;;;;6250977;28;20486;-62
2021/03/15 04:23:36;;;;;;;5.27;1.90;;;5.00;71.40;;;;;;6251070;28;20475;-62
2021/03/15 04:26:39;;;;;;;1.90;1.70;;;5.00;71.80;;;;;;6250585;28;20479;-60
2021/03/15 04:29:43;;;;;;;3.77;2.23;;;4.90;72.50;;;;;;6251056;28;20804;-61
2021/03/15 04:32:47;;;;;;;2.00;1.80;;;4.90;73.10;;;;;;6250772;28;21113;-61
2021/03/15 04:35:50;;;;;;;5.17;3.93;;;4.90;73.70;;;;;;6251073;28;20529;-62
2021/03/15 04:38:53;;;;;;;3.23;2.93;;;4.80;74.10;;;;;;6250809;28;20486;-61
2021/03/15 04:41:57;;;;;;;3.40;2.30;;;4.80;74.60;;;;;;6250420;28;20471;-61
2021/03/15 04:45:01;;;;;;;2.53;2.33;;;4.60;74.80;;;;;;6250423;28;20490;-61
2021/03/15 04:48:05;;;;;;;4.60;3.20;;;4.40;74.80;;;;;;6249888;28;20472;-61
2021/03/15 04:51:08;;;;;;;3.60;2.70;;;4.30;75.60;;;;;;6250390;28;20467;-61
2021/03/15 04:54:12;;;;;;;5.60;4.33;;;4.30;75.90;;;;;;6249916;28;20467;-61
2021/03/15 04:57:15;;;;;;;6.67;5.40;;;4.20;76.20;;;;;;6245765;28;20471;-61
2021/03/15 05:00:18;;;;;;;6.50;5.80;;;4.20;76.60;;;;;;6250491;28;20475;-61
2021/03/15 05:03:22;;;;;;;4.30;3.43;;;4.20;76.90;;;;;;6250243;28;20485;-62
2021/03/15 05:06:25;;;;;;;2.07;1.77;;;4.20;77.60;;;;;;6250238;28;20475;-61
2021/03/15 05:09:31;;;;;;;4.37;3.40;;;4.20;77.70;;;;;;6250403;28;20490;-62
2021/03/15 05:12:44;;;;;;;9.77;4.03;;;4.20;78.00;;;;;;6250025;28;20479;-61
2021/03/15 05:15:47;;;;;;;4.47;3.10;;;4.20;78.60;;;;;;6250101;28;20475;-61
2021/03/15 05:18:52;;;;;;;6.10;4.10;;;4.30;78.70;;;;;;6250136;28;20475;-61
2021/03/15 05:21:55;;;;;;;5.33;3.27;;;4.30;78.80;;;;;;6250027;28;20473;-60
2021/03/15 05:25:00;;;;;;;5.60;3.17;;;4.30;79.30;;;;;;6249841;28;20479;-61
2021/03/15 05:28:05;;;;;;;7.90;3.53;;;4.20;79.50;;;;;;6249762;28;20496;-60
2021/03/15 05:31:08;;;;;;;5.97;3.40;;;4.20;80.00;;;;;;6249979;28;20475;-60
2021/03/15 05:34:13;;;;;;;5.20;3.83;;;4.20;80.20;;;;;;6249882;28;20471;-61
2021/03/15 05:37:16;;;;;;;3.97;3.57;;;4.20;80.50;;;;;;6249755;28;20467;-61
2021/03/15 05:40:21;;;;;;;4.53;3.00;;;4.20;81.30;;;;;;6249697;28;20811;-61
2021/03/15 05:43:38;;;;;;;6.73;3.83;;;4.20;81.50;;;;;;6249871;28;20439;-61
2021/03/15 05:47:17;;;;;;;4.57;4.27;;;4.30;81.40;;;;;;6249820;28;21010;-60
2021/03/15 05:50:50;;;;;;;11.47;6.50;;;4.30;80.90;;;;;;6213768;28;20550;-61
2021/03/15 05:54:20;;;;;;;6.10;4.50;;;4.20;81.40;;;;;;6249744;28;20498;-61
2021/03/15 05:57:41;;;;;;;9.00;5.57;;;4.20;81.90;;;;;;6249413;28;20478;-62
2021/03/15 06:01:00;;;;;;;9.63;5.30;;;4.30;82.70;;;;;;6250025;28;20475;-61
2021/03/15 06:04:44;;;;;;;5.63;4.57;;;4.30;82.80;;;;;;6249385;28;20566;-62
2021/03/15 06:07:49;;;;;;;4.87;3.13;;;4.40;83.70;;;;;;6248097;28;20481;-61
2021/03/15 06:11:12;;;;;;;6.70;3.50;;;4.40;82.50;;;;;;6254107;28;20478;-61
2021/03/15 06:14:16;;;;;;;5.30;3.00;;;4.50;82.50;;;;;;6254577;28;20471;-61
2021/03/15 06:17:19;;;;;;;5.17;3.63;;;4.60;81.60;;;;;;6254212;28;20479;-61
2021/03/15 06:20:25;;;;;;;5.13;3.30;;;4.70;81.40;;;;;;6251927;28;20471;-61
2021/03/15 06:23:28;;;;;;;7.60;3.60;;;4.70;81.40;;;;;;6235090;28;20472;-60
2021/03/15 06:26:32;;;;;;;3.73;2.93;;;4.70;81.70;;;;;;6229215;28;20819;-60
2021/03/15 06:29:35;;;;;;;4.60;3.90;;;4.80;81.50;;;;;;6229523;28;20550;-61
2021/03/15 06:32:38;;;;;;;4.50;3.57;;;4.70;81.70;;;;;;6229062;28;20479;-61
2021/03/15 06:35:42;;;;;;;3.03;2.83;;;4.70;82.00;;;;;;6229143;28;20480;-61
2021/03/15 06:38:46;;;;;;;5.60;3.50;;;4.80;82.90;;;;;;6227665;28;20486;-61
2021/03/15 06:41:51;;;;;;;20.63;4.37;;;5.00;82.10;;;;;;6228069;28;20472;-61
2021/03/15 06:44:54;;;;;;;5.67;3.97;;;5.10;81.60;;;;;;6228346;28;20491;-61
2021/03/15 06:47:57;;;;;;;8.67;3.50;;;5.30;81.00;;;;;;6227617;28;20787;-61
2021/03/15 06:50:59;;;;;;;4.73;4.17;;;5.30;81.00;;;;;;6228448;28;20490;-61
2021/03/15 06:54:01;;;;;;;4.97;4.07;;;5.40;81.20;;;;;;6228953;28;20472;-61
2021/03/15 06:57:15;;;;;;;3.10;2.73;;;5.50;80.60;;;;;;6228557;28;20483;-60
2021/03/15 07:00:19;;;;;;;9.83;3.70;;;5.70;79.50;;;;;;6228514;28;20464;-60
2021/03/15 07:03:23;;;;;;;3.73;2.90;;;5.90;79.00;;;;;;6226670;28;20472;-60
2021/03/15 07:06:35;;;;;;;6.80;3.80;;;6.10;78.30;;;;;;6216902;28;20484;-62
2021/03/15 07:09:37;;;;;;;9.10;3.93;;;6.10;77.40;;;;;;6226832;28;20486;-61
2021/03/15 07:12:39;;;;;;;5.03;3.30;;;6.30;77.60;;;;;;6227388;28;20476;-60
2021/03/15 07:15:44;;;;;;;3.43;3.13;;;6.60;77.40;;;;;;6227182;28;20991;-59
2021/03/15 07:18:46;;;;;;;6.80;3.47;;;6.70;75.60;;;;;;6227166;28;20480;-59
2021/03/15 07:21:48;;;;;;;5.17;3.80;;;7.40;74.50;;;;;;6227605;28;20551;-59
2021/03/15 07:25:21;;;;;;;7.03;2.73;;;9.60;71.70;;;;;;6227854;28;20486;-60
2021/03/15 07:28:30;;;;;;;5.00;3.20;;;13.30;59.90;;;;;;6228000;28;20506;-61
2021/03/15 07:31:33;;;;;;;4.43;3.10;;;16.10;51.50;;;;;;6227801;28;20495;-61
2021/03/15 07:34:36;;;;;;;9.63;3.37;;;18.20;46.10;;;;;;6231786;28;20440;-61
2021/03/15 07:37:42;;;;;;;7.40;3.43;;;20.20;39.70;;;;;;6238821;28;20428;-61
2021/03/15 07:40:46;;;;;;;4.03;3.23;;;21.60;36.00;;;;;;6229940;28;20916;-61
2021/03/15 07:43:50;;;;;;;4.53;3.30;;;22.40;32.60;;;;;;6237436;28;20239;-61
2021/03/15 07:46:55;;;;;;;5.47;3.17;;;22.00;32.50;;;;;;6245141;28;20237;-61
2021/03/15 07:49:58;;;;;;;4.60;3.47;;;20.90;32.80;;;;;;6234085;28;20233;-61
2021/03/15 07:53:02;;;;;;;3.63;2.87;;;21.60;32.90;;;;;;6231180;28;20247;-62
2021/03/15 07:56:06;;;;;;;12.60;5.03;;;23.50;30.80;;;;;;6245532;28;20232;-61
2021/03/15 07:59:08;;;;;;;6.60;2.73;;;25.30;28.60;;;;;;6246194;28;20228;-61
2021/03/15 08:02:15;;;;;;;3.50;2.97;;;26.20;27.20;;;;;;6247734;28;20232;-60
2021/03/15 08:05:20;;;;;;;10.53;5.53;;;26.70;25.90;;;;;;6251357;28;20236;-63
2021/03/15 08:08:23;;;;;;;3.87;3.10;;;25.50;26.20;;;;;;6222844;28;20229;-62
2021/03/15 08:11:27;;;;;;;4.00;3.60;;;24.50;25.70;;;;;;6237534;28;20221;-63
2021/03/15 08:14:33;;;;;;;4.23;3.83;;;23.80;26.50;;;;;;6234666;28;20243;-60
2021/03/15 08:17:38;;;;;;;8.53;5.10;;;21.80;28.30;;;;;;6219876;28;20236;-59
2021/03/15 08:20:45;;;;;;;5.37;3.40;;;20.20;29.90;;;;;;6202321;28;20242;-59
2021/03/15 08:23:52;;;;;;;7.13;3.73;;;18.60;31.50;;;;;;6202371;28;20578;-59
2021/03/15 08:26:57;;;;;;;5.97;3.97;;;17.30;33.90;;;;;;6215541;28;20539;-60
2021/03/15 08:30:02;;;;;;;5.07;4.00;;;17.50;34.90;;;;;;6237304;28;20492;-60
2021/03/15 08:33:05;;;;;;;4.70;3.60;;;20.50;33.80;;;;;;6238778;28;20551;-60
2021/03/15 08:36:09;;;;;;;4.20;3.23;;;23.80;29.00;;;;;;6234346;28;20244;-60
2021/03/15 08:39:35;;;;;;;3.20;2.90;;;23.60;27.80;;;;;;6238511;28;20232;-60
2021/03/15 08:42:37;;;;;;;5.37;3.17;;;24.90;27.20;;;;;;6236503;28;20253;-60
2021/03/15 08:45:48;;;;;;;5.27;3.53;;;24.10;27.10;;;;;;6234073;28;20232;-60
2021/03/15 08:48:54;;;;;;;7.63;3.97;;;25.70;26.40;;;;;;6237886;28;20220;-60
2021/03/15 08:51:56;;;;;;;3.77;2.80;;;29.10;24.00;;;;;;6237836;28;20235;-60
2021/03/15 08:54:59;;;;;;;3.60;2.77;;;31.20;21.80;;;;;;6226278;28;20584;-60
2021/03/15 08:58:14;;;;;;;4.95;3.33;;;33.60;20.00;;;;;;6225498;28;20224;-60
2021/03/15 09:01:17;;;;;;;6.75;2.60;;;34.50;18.80;;;;;;6225333;28;20240;-61
2021/03/15 09:04:51;;;;;;;2.90;1.25;;;34.50;17.40;;;;;;6225542;28;20232;-61
2021/03/15 09:07:55;;;;;;;1.77;0.95;;;34.30;15.70;;;;;;6225542;28;20236;-64
2021/03/15 09:10:58;;;;;;;3.33;0.95;;;33.20;15.10;;;;;;6225365;28;20355;-63
2021/03/15 09:14:32;;;;;;;1.17;0.70;;;33.50;15.70;;;;;;6219282;28;20247;-64
2021/03/15 09:17:34;;;;;;;1.65;0.68;;;35.00;15.20;;;;;;6241138;28;20221;-64
2021/03/15 09:20:38;;;;;;;0.80;0.40;;;35.70;13.90;;;;;;6225620;28;20707;-65
2021/03/15 09:23:40;;;;;;;0.85;0.63;;;35.50;13.80;;;;;;6225194;28;20235;-61
2021/03/15 09:26:44;;;;;;;1.17;0.70;;;35.10;13.80;;;;;;6224965;28;20241;-62
2021/03/15 09:29:53;;;;;;;1.55;0.65;;;34.90;14.10;;;;;;6225055;28;20229;-60
2021/03/15 09:32:57;;;;;;;0.90;0.73;;;34.40;14.30;;;;;;6225390;28;20700;-63
2021/03/15 09:36:05;;;;;;;1.55;0.55;;;33.20;14.40;;;;;;6224813;28;20275;-61
2021/03/15 09:39:10;;;;;;;1.20;0.90;;;31.50;15.10;;;;;;6226916;28;20580;-63
2021/03/15 09:42:13;;;;;;;2.20;1.00;;;29.50;16.30;;;;;;6227082;28;20283;-64
2021/03/15 09:45:39;;;;;;;2.17;1.60;;;29.90;16.00;;;;;;6224480;28;20236;-61
2021/03/15 09:48:42;;;;;;;1.10;0.70;;;28.40;16.40;;;;;;6221830;28;20242;-64
2021/03/15 09:51:49;;;;;;;1.97;1.40;;;27.00;17.10;;;;;;6224979;28;20228;-59
2021/03/15 09:54:53;;;;;;;1.40;0.93;;;26.30;17.90;;;;;;6224548;28;20243;-68
2021/03/15 09:58:02;;;;;;;1.60;0.70;;;28.30;17.30;;;;;;6224874;28;20294;-65
2021/03/15 10:01:10;;;;;;;1.53;0.70;;;30.90;15.50;;;;;;6231822;28;20232;-62
2021/03/15 10:04:19;;;;;;;3.50;0.75;;;31.60;14.60;;;;;;6235175;28;20274;-65
2021/03/15 10:07:22;;;;;;;1.83;0.63;;;33.10;14.60;;;;;;6225047;28;20780;-64
2021/03/15 10:10:25;;;;;;;2.70;1.08;;;35.80;13.70;;;;;;6217654;28;20225;-61
2021/03/15 10:13:27;;;;;;;1.30;0.80;;;37.50;12.80;;;;;;6221205;28;20228;-62
2021/03/15 10:16:30;;;;;;;2.72;0.68;;;39.10;12.20;;;;;;6235688;28;20660;-67
2021/03/15 10:19:33;;;;;;;2.47;0.70;;;38.80;11.30;;;;;;6200536;28;20198;-61
2021/03/15 10:22:37;;;;;;;0.80;0.73;;;36.90;12.20;;;;;;6233405;28;20228;-63
2021/03/15 10:25:40;;;;;;;1.70;0.90;;;35.80;12.10;;;;;;6248902;28;20228;-65
2021/03/15 10:28:48;;;;;;;0.85;0.65;;;34.50;12.80;;;;;;6249009;28;20575;-63
2021/03/15 10:31:52;;;;;;;0.82;0.43;;;36.20;12.50;;;;;;6249147;28;20228;-62
2021/03/15 10:34:57;;;;;;;1.83;0.70;;;35.70;12.50;;;;;;6248868;28;20638;-60
2021/03/15 10:38:03;;;;;;;0.70;0.55;;;36.50;12.30;;;;;;6249023;28;20290;-63
2021/03/15 10:41:06;;;;;;;1.05;0.55;;;37.40;11.60;;;;;;6243410;28;20240;-62
2021/03/15 10:44:10;;;;;;;0.63;0.50;;;37.90;11.70;;;;;;6235205;28;20698;-61
2021/03/15 10:47:13;;;;;;;1.75;0.82;;;39.40;11.10;;;;;;6239625;28;20236;-59
2021/03/15 10:50:26;;;;;;;1.20;0.47;;;37.80;11.10;;;;;;6220452;28;20547;-63
2021/03/15 10:53:30;;;;;;;2.70;0.93;;;35.50;11.80;;;;;;6213665;28;20310;-62
2021/03/15 10:56:33;;;;;;;3.67;0.80;;;31.60;13.10;;;;;;6236431;28;20273;-61
2021/03/15 10:59:36;;;;;;;1.20;0.50;;;27.10;15.20;;;;;;6253231;28;20238;-61
2021/03/15 11:02:45;;;;;;;2.00;0.93;;;24.80;17.20;;;;;;6242335;28;20295;-61
2021/03/15 11:05:48;;;;;;;1.70;0.87;;;23.00;18.20;;;;;;6228074;28;20319;-62
2021/03/15 11:08:55;;;;;;;1.17;0.90;;;23.20;19.30;;;;;;6228167;28;20250;-59
2021/03/15 11:11:59;;;;;;;1.10;0.80;;;27.50;17.60;;;;;;6227779;28;20589;-60
2021/03/15 11:15:18;;;;;;;2.20;1.37;;;30.30;15.70;;;;;;6228230;28;20252;-57
2021/03/15 11:18:23;;;;;;;1.00;0.80;;;30.70;14.80;;;;;;6227986;28;20228;-60
2021/03/15 11:21:25;;;;;;;1.93;1.03;;;28.60;15.50;;;;;;6227843;28;20236;-61
2021/03/15 11:24:29;;;;;;;2.17;1.13;;;28.20;16.20;;;;;;6223132;28;20231;-61
2021/03/15 11:27:34;;;;;;;3.50;1.00;;;29.60;15.50;;;;;;6227401;28;20242;-62
2021/03/15 11:30:37;;;;;;;3.45;0.80;;;31.70;15.00;;;;;;6227391;28;20307;-61
2021/03/15 11:33:40;;;;;;;2.85;0.68;;;34.60;13.70;;;;;;6227481;28;20228;-60
2021/03/15 11:36:48;;;;;;;1.08;0.73;;;34.40;13.00;;;;;;6227127;28;20295;-61
2021/03/15 11:39:53;;;;;;;1.40;0.80;;;34.20;13.20;;;;;;6227302;28;20258;-64
2021/03/15 11:42:56;;;;;;;1.08;0.60;;;35.30;13.10;;;;;;6226841;28;20766;-63
2021/03/15 11:45:58;;;;;;;1.00;0.60;;;36.00;12.00;;;;;;6226948;28;20703;-58
2021/03/15 11:49:00;;;;;;;1.70;0.70;;;33.30;13.00;;;;;;6219461;28;20241;-61
2021/03/15 11:52:03;;;;;;;1.00;0.60;;;34.40;13.40;;;;;;6226820;28;20228;-61
2021/03/15 11:55:08;;;;;;;0.90;0.50;;;35.50;12.40;;;;;;6226615;28;20567;-62
2021/03/15 11:58:11;;;;;;;1.80;0.40;;;35.00;12.60;;;;;;6226555;28;20250;-62
2021/03/15 12:01:14;;;;;;;1.83;0.60;;;32.50;13.40;;;;;;6226461;28;20242;-60
2021/03/15 12:04:18;;;;;;;1.73;0.50;;;29.30;14.90;;;;;;6226291;28;20228;-61
2021/03/15 12:07:20;;;;;;;1.43;0.40;;;26.50;16.50;;;;;;6229316;28;20240;-63
2021/03/15 12:10:23;;;;;;;0.90;0.53;;;24.40;17.70;;;;;;6237520;28;20568;-57
2021/03/15 12:13:26;;;;;;;1.37;0.70;;;23.00;18.80;;;;;;6238263;28;20304;-57
2021/03/15 12:16:28;;;;;;;0.80;0.60;;;21.90;20.00;;;;;;6226513;28;20221;-58
2021/03/15 12:19:31;;;;;;;0.80;0.40;;;20.70;20.60;;;;;;6226433;28;20212;-57
2021/03/15 12:22:36;;;;;;;0.70;0.57;;;19.70;21.40;;;;;;6225979;28;20209;-57
2021/03/15 12:25:40;;;;;;;1.20;0.80;;;19.00;22.80;;;;;;6217207;28;20225;-59
2021/03/15 12:28:42;;;;;;;3.50;0.80;;;20.70;21.70;;;;;;6226167;28;20316;-59
2021/03/15 12:31:44;;;;;;;2.83;0.60;;;20.60;20.90;;;;;;6225955;28;20216;-59
2021/03/15 12:34:48;;;;;;;0.80;0.53;;;19.90;21.00;;;;;;6225908;28;20291;-59
2021/03/15 12:37:51;;;;;;;5.93;4.70;;;19.20;22.20;;;;;;6225522;28;20308;-58
2021/03/15 12:40:54;;;;;;;1.03;0.80;;;20.10;22.00;;;;;;6223757;28;20293;-58
2021/03/15 12:43:57;;;;;;;1.70;0.60;;;20.20;21.60;;;;;;6223930;28;20229;-57
2021/03/15 12:46:59;;;;;;;0.70;0.57;;;20.10;21.60;;;;;;6224475;28;20239;-58
2021/03/15 12:50:02;;;;;;;0.70;0.50;;;20.80;21.20;;;;;;6210535;28;20567;-58
2021/03/15 12:53:04;;;;;;;2.50;0.80;;;23.00;20.50;;;;;;6225688;28;20233;-59
2021/03/15 12:56:07;;;;;;;0.83;0.40;;;23.40;19.90;;;;;;6225754;28;20233;-59
2021/03/15 12:59:12;;;;;;;0.60;0.47;;;22.60;19.80;;;;;;6201445;28;20234;-59
2021/03/15 13:02:14;;;;;;;1.23;0.60;;;21.10;20.30;;;;;;6201496;28;20241;-58
2021/03/15 13:05:16;;;;;;;3.50;0.63;;;19.60;21.30;;;;;;6201267;28;20237;-58
2021/03/15 13:08:18;;;;;;;0.50;0.30;;;18.20;22.70;;;;;;6201296;28;20237;-58
2021/03/15 13:11:21;;;;;;;0.73;0.50;;;17.10;24.00;;;;;;6215569;28;20614;-58
2021/03/15 13:14:24;;;;;;;0.70;0.70;;;16.50;24.80;;;;;;6224962;28;20480;-58
2021/03/15 13:17:28;;;;;;;0.83;0.60;;;16.50;24.80;;;;;;6225200;28;20502;-57
2021/03/15 13:20:30;;;;;;;1.40;0.90;;;16.60;24.80;;;;;;6225024;28;20483;-58
2021/03/15 13:23:32;;;;;;;0.63;0.40;;;17.00;25.30;;;;;;6224979;28;20850;-57
2021/03/15 13:26:35;;;;;;;2.60;0.50;;;17.50;25.00;;;;;;6224979;28;20485;-58
2021/03/15 13:29:38;;;;;;;1.13;0.50;;;18.00;24.50;;;;;;6220896;28;20483;-58
2021/03/15 13:32:40;;;;;;;0.80;0.60;;;19.10;23.40;;;;;;6225140;28;20526;-57
2021/03/15 13:35:43;;;;;;;0.90;0.60;;;19.40;23.50;;;;;;6225483;28;20611;-57
2021/03/15 13:38:45;;;;;;;1.03;0.43;;;19.70;22.30;;;;;;6224843;28;20711;-57
2021/03/15 13:41:48;;;;;;;1.10;1.00;;;20.30;22.30;;;;;;6225339;28;20247;-58
2021/03/15 13:44:51;;;;;;;0.60;0.53;;;21.50;21.70;;;;;;6225011;28;20237;-59
2021/03/15 13:47:53;;;;;;;0.80;0.40;;;22.10;20.90;;;;;;6224733;28;20259;-60
2021/03/15 13:50:55;;;;;;;1.10;0.60;;;21.60;20.30;;;;;;6216440;28;20217;-62
2021/03/15 13:53:58;;;;;;;2.43;0.70;;;20.40;21.10;;;;;;6211555;28;20719;-61
2021/03/15 13:57:01;;;;;;;2.27;0.50;;;19.20;21.90;;;;;;6224465;28;20725;-60
2021/03/15 14:00:04;;;;;;;0.70;0.70;;;18.40;22.70;;;;;;6224656;28;20592;-59
2021/03/15 14:03:07;;;;;;;0.60;0.40;;;17.70;23.20;;;;;;6224700;28;20475;-60
2021/03/15 14:06:10;;;;;;;0.50;0.37;;;17.00;24.00;;;;;;6224579;28;20817;-61
2021/03/15 14:09:12;;;;;;;1.40;0.60;;;16.40;25.00;;;;;;6224607;28;20477;-61
2021/03/15 14:12:16;;;;;;;1.17;0.60;;;16.10;25.50;;;;;;6224376;28;20963;-61
2021/03/15 14:15:19;;;;;;;1.47;0.60;;;15.90;25.90;;;;;;6224501;28;20472;-61
2021/03/15 14:18:22;;;;;;;2.60;0.57;;;15.80;26.10;;;;;;6224385;28;20468;-61
2021/03/15 14:21:24;;;;;;;0.97;0.70;;;15.50;26.40;;;;;;6224204;28;20534;-65
2021/03/15 14:24:27;;;;;;;0.73;0.70;;;15.10;26.90;;;;;;6224314;28;20486;-63
2021/03/15 14:27:30;;;;;;;2.67;1.13;;;14.70;27.00;;;;;;6227120;28;20795;-63
2021/03/15 14:30:32;;;;;;;1.70;0.70;;;14.40;27.10;;;;;;6228857;28;20475;-60
2021/03/15 14:33:34;;;;;;;0.93;0.73;;;14.20;27.10;;;;;;6228978;28;20554;-59
2021/03/15 14:36:37;;;;;;;1.40;0.60;;;14.00;27.20;;;;;;6219008;28;20505;-59
2021/03/15 14:39:40;;;;;;;1.17;0.70;;;13.80;28.10;;;;;;6228850;28;20790;-61
2021/03/15 14:42:43;;;;;;;0.90;0.50;;;13.80;27.20;;;;;;6228431;28;20476;-61
2021/03/15 14:45:50;;;;;;;1.30;0.67;;;13.70;26.30;;;;;;6228511;28;21023;-61
2021/03/15 14:48:54;;;;;;;1.30;0.60;;;13.70;26.50;;;;;;6228220;28;20499;-61
2021/03/15 14:51:56;;;;;;;0.87;0.60;;;13.70;25.80;;;;;;6228103;28;20814;-61
2021/03/15 14:54:59;;;;;;;0.93;0.60;;;13.60;26.10;;;;;;6227443;28;20491;-57
2021/03/15 14:58:02;;;;;;;1.37;0.80;;;13.60;25.80;;;;;;6227884;28;20472;-61
2021/03/15 15:01:07;;;;;;;1.47;0.80;;;13.40;26.00;;;;;;6228250;28;20483;-61
2021/03/15 15:04:29;;;;;;;0.80;0.60;;;13.20;26.60;;;;;;6227949;28;20464;-59
2021/03/15 15:07:32;;;;;;;2.40;0.70;;;12.90;26.80;;;;;;6228289;28;20891;-58
2021/03/15 15:10:35;;;;;;;4.20;1.00;;;12.70;27.30;;;;;;6227947;28;20444;-57
2021/03/15 15:13:38;;;;;;;1.73;1.00;;;12.50;28.90;;;;;;6227653;28;20911;-57
2021/03/15 15:16:40;;;;;;;2.10;1.00;;;12.50;30.80;;;;;;6228001;28;20468;-62
2021/03/15 15:19:43;;;;;;;1.00;0.70;;;12.50;28.80;;;;;;6232773;28;20455;-61
2021/03/15 15:22:45;;;;;;;1.17;0.70;;;12.30;30.00;;;;;;6241523;28;20445;-61
2021/03/15 15:25:48;;;;;;;1.40;0.90;;;12.20;28.30;;;;;;6243211;28;20573;-62
2021/03/15 15:28:51;;;;;;;2.93;0.83;;;12.10;29.60;;;;;;6232351;28;20463;-60
2021/03/15 15:31:53;;;;;;;3.17;0.93;;;12.10;29.70;;;;;;6227557;28;20472;-59
2021/03/15 15:34:56;;;;;;;2.00;0.70;;;12.20;30.60;;;;;;6240135;28;20824;-60
2021/03/15 15:37:58;;;;;;;0.80;0.60;;;12.40;29.80;;;;;;6238425;28;20478;-59
2021/03/15 15:41:00;;;;;;;1.00;0.60;;;12.40;30.30;;;;;;6234254;28;21005;-59
2021/03/15 15:44:03;;;;;;;1.03;1.00;;;12.40;29.50;;;;;;6251993;28;20479;-58
2021/03/15 15:47:06;;;;;;;3.27;1.80;;;12.30;29.40;;;;;;6251229;28;20494;-60
2021/03/15 15:50:09;;;;;;;1.67;1.43;;;12.20;30.80;;;;;;6248343;28;20561;-57
2021/03/15 15:53:14;;;;;;;2.43;1.17;;;12.30;30.40;;;;;;6239170;28;20472;-58
2021/03/15 15:56:16;;;;;;;3.63;0.90;;;12.30;31.10;;;;;;6226698;28;20483;-58
2021/03/15 15:59:19;;;;;;;2.67;1.17;;;12.50;30.90;;;;;;6235836;28;20476;-58
2021/03/15 16:02:21;;;;;;;1.03;0.93;;;12.50;30.00;;;;;;6226828;28;20976;-60
2021/03/15 16:05:24;;;;;;;0.80;0.67;;;12.50;29.90;;;;;;6226663;28;20472;-58
2021/03/15 16:08:26;;;;;;;0.80;0.80;;;12.50;29.90;;;;;;6232968;28;20486;-59